createdAt,value
2022-08-17T00:01:09.913Z,18.42
2022-08-17T00:03:51.943Z,18.60
2022-08-17T00:06:29.358Z,18.23
2022-08-17T00:09:00.868Z,17.73
2022-08-17T00:12:40.551Z,20.23
2022-08-17T00:14:37.779Z,17.90
2022-08-17T00:17:23.350Z,21.35
2022-08-17T00:19:57.572Z,20.10
2022-08-17T00:22:46.763Z,19.27
2022-08-17T00:25:17.355Z,17.52
2022-08-17T00:27:49.579Z,20.88
2022-08-17T00:30:16.664Z,61.75
2022-08-17T00:33:12.633Z,29.60
2022-08-17T00:35:42.736Z,19.42
2022-08-17T00:38:12.732Z,14.27
2022-08-17T00:40:49.432Z,15.32
2022-08-17T00:43:21.100Z,14.30
2022-08-17T00:45:50.234Z,16.38
2022-08-17T00:48:28.957Z,16.38
2022-08-17T00:51:23.658Z,17.17
2022-08-17T00:53:56.772Z,16.27
2022-08-17T00:56:34.771Z,17.25
2022-08-17T00:59:04.655Z,16.58
2022-08-17T01:01:34.856Z,16.60
2022-08-17T01:04:09.182Z,17.58
2022-08-17T01:06:36.606Z,16.65
2022-08-17T01:09:07.184Z,18.27
2022-08-17T01:11:53.803Z,17.50
2022-08-17T01:14:26.828Z,15.25
2022-08-17T01:17:01.986Z,15.68
2022-08-17T01:19:32.953Z,16.15
2022-08-17T01:22:23.123Z,15.80
2022-08-17T01:25:03.040Z,16.95
2022-08-17T01:27:38.679Z,16.05
2022-08-17T01:30:56.685Z,19.10
2022-08-17T01:32:58.509Z,17.92
2022-08-17T01:35:25.679Z,17.90
2022-08-17T01:37:53.310Z,19.95
2022-08-17T01:40:50.485Z,17.02
2022-08-17T01:43:33.315Z,16.73
2022-08-17T01:46:04.490Z,17.17
2022-08-17T01:48:34.764Z,16.00
2022-08-17T01:51:07.436Z,17.77
2022-08-17T01:53:42.824Z,16.10
2022-08-17T01:56:22.175Z,16.38
2022-08-17T01:59:01.446Z,15.23
2022-08-17T02:01:30.774Z,15.45
2022-08-17T02:04:03.141Z,16.77
2022-08-17T02:06:45.002Z,19.63
2022-08-17T02:09:16.898Z,15.45
2022-08-17T02:11:58.075Z,14.32
2022-08-17T02:14:27.282Z,15.13
2022-08-17T02:16:56.582Z,15.68
2022-08-17T02:19:25.695Z,16.35
2022-08-17T02:21:54.986Z,17.13
2022-08-17T02:25:01.115Z,17.65
2022-08-17T02:27:53.747Z,18.10
2022-08-17T02:30:59.779Z,19.70
2022-08-17T02:33:25.333Z,16.90
2022-08-17T02:36:13.338Z,17.67
2022-08-17T02:38:48.408Z,17.98
2022-08-17T02:41:23.726Z,17.05
2022-08-17T02:43:51.546Z,18.95
2022-08-17T02:46:21.677Z,17.60
2022-08-17T02:48:52.016Z,19.42
2022-08-17T02:51:44.298Z,18.38
2022-08-17T02:54:39.672Z,17.75
2022-08-17T02:56:58.331Z,17.35
2022-08-17T02:59:31.817Z,19.83
2022-08-17T03:01:59.982Z,18.25
2022-08-17T03:04:35.545Z,16.05
2022-08-17T03:07:13.020Z,15.95
2022-08-17T03:09:40.180Z,15.32
2022-08-17T03:12:14.034Z,16.90
2022-08-17T03:17:34.794Z,16.33
2022-08-17T03:20:03.626Z,16.63
2022-08-17T03:22:38.632Z,15.82
2022-08-17T03:25:31.346Z,16.40
2022-08-17T03:28:17.826Z,16.92
2022-08-17T03:30:45.038Z,16.45
2022-08-17T03:33:14.044Z,16.08
2022-08-17T03:35:54.041Z,15.90
2022-08-17T03:38:22.341Z,16.25
2022-08-17T03:40:59.709Z,15.07
2022-08-17T03:43:33.710Z,15.15
2022-08-17T03:46:46.716Z,14.80
2022-08-17T03:49:39.919Z,15.05
2022-08-17T03:52:26.673Z,15.82
2022-08-17T03:55:14.503Z,16.73
2022-08-17T03:57:43.549Z,16.48
2022-08-17T04:00:11.438Z,15.60
2022-08-17T04:02:39.958Z,15.98
2022-08-17T04:05:12.359Z,16.58
2022-08-17T04:07:40.473Z,16.60
2022-08-17T04:10:16.361Z,16.55
2022-08-17T04:12:58.868Z,17.58
2022-08-17T04:15:33.809Z,16.67
2022-08-17T04:18:01.977Z,19.75
2022-08-17T04:20:34.073Z,17.60
2022-08-17T04:23:10.869Z,18.42
2022-08-17T04:25:50.599Z,16.90
2022-08-17T04:28:20.829Z,16.83
2022-08-17T04:30:49.039Z,16.83
2022-08-17T04:33:24.365Z,16.95
2022-08-17T04:35:57.183Z,18.20
2022-08-17T04:38:27.499Z,19.17
2022-08-17T04:41:16.881Z,16.92
2022-08-17T04:43:48.046Z,16.73
2022-08-17T04:46:21.568Z,17.13
2022-08-17T04:48:51.829Z,16.73
2022-08-17T04:51:37.611Z,18.83
2022-08-17T04:54:15.893Z,16.55
2022-08-17T04:56:43.471Z,16.55
2022-08-17T04:59:20.491Z,17.13
2022-08-17T05:01:53.566Z,16.30
2022-08-17T05:04:33.990Z,17.90
2022-08-17T05:07:24.008Z,16.90
2022-08-17T05:09:52.632Z,17.40
2022-08-17T05:12:25.635Z,15.32
2022-08-17T05:14:59.687Z,16.60
2022-08-17T05:17:37.205Z,15.90
2022-08-17T05:20:11.088Z,16.50
2022-08-17T05:22:51.572Z,16.67
2022-08-17T05:25:27.955Z,18.40
2022-08-17T05:28:02.117Z,17.17
2022-08-17T05:30:29.513Z,16.67
2022-08-17T05:33:28.006Z,16.52
2022-08-17T05:36:08.974Z,17.63
2022-08-17T05:39:16.124Z,15.45
2022-08-17T05:41:48.616Z,14.90
2022-08-17T05:44:24.756Z,16.00
2022-08-17T05:46:54.560Z,15.93
2022-08-17T05:49:38.026Z,18.00
2022-08-17T05:52:26.614Z,16.30
2022-08-17T05:55:13.817Z,17.27
2022-08-17T05:57:53.210Z,16.52
2022-08-17T06:00:32.220Z,15.77
2022-08-17T06:03:05.678Z,16.08
2022-08-17T06:06:03.837Z,16.20
2022-08-17T06:08:41.324Z,18.13
2022-08-17T06:11:40.520Z,14.77
2022-08-17T06:14:30.414Z,14.90
2022-08-17T06:17:04.815Z,14.45
2022-08-17T06:19:42.696Z,15.00
2022-08-17T06:22:20.485Z,13.45
2022-08-17T06:25:12.843Z,14.32
2022-08-17T06:28:04.345Z,14.27
2022-08-17T06:30:59.845Z,13.57
2022-08-17T06:33:38.305Z,13.00
2022-08-17T06:36:09.832Z,15.65
2022-08-17T06:39:07.916Z,16.52
2022-08-17T06:42:02.004Z,14.45
2022-08-17T06:44:55.501Z,13.85
2022-08-17T06:47:57.208Z,13.30
2022-08-17T06:50:47.183Z,14.77
2022-08-17T06:53:31.972Z,13.57
2022-08-17T06:56:09.266Z,13.10
2022-08-17T06:58:40.210Z,13.75
2022-08-17T07:01:25.638Z,13.80
2022-08-17T07:04:26.443Z,13.25
2022-08-17T07:07:23.804Z,12.88
2022-08-17T07:09:57.075Z,13.90
2022-08-17T07:12:38.765Z,13.80
2022-08-17T07:15:16.824Z,12.05
2022-08-17T07:17:51.244Z,12.40
2022-08-17T07:20:22.810Z,13.02
2022-08-17T07:23:17.886Z,12.55
2022-08-17T07:25:46.996Z,12.23
2022-08-17T07:28:23.190Z,12.85
2022-08-17T07:30:55.405Z,12.10
2022-08-17T07:33:32.508Z,11.63
2022-08-17T07:36:29.562Z,13.15
2022-08-17T07:39:03.043Z,10.40
2022-08-17T07:41:53.168Z,10.48
2022-08-17T07:44:27.580Z,10.88
2022-08-17T07:47:16.824Z,9.65
2022-08-17T07:49:46.675Z,11.25
2022-08-17T07:52:50.398Z,10.57
2022-08-17T07:55:31.583Z,10.68
2022-08-17T07:58:03.751Z,11.23
2022-08-17T08:00:34.027Z,9.55
2022-08-17T08:03:26.077Z,10.07
2022-08-17T08:05:57.810Z,11.60
2022-08-17T08:08:28.760Z,13.05
2022-08-17T08:11:13.198Z,9.88
2022-08-17T08:13:45.553Z,10.02
2022-08-17T08:16:26.836Z,10.80
2022-08-17T08:19:00.368Z,11.75
2022-08-17T08:24:43.152Z,13.05
2022-08-17T08:27:40.119Z,9.80
2022-08-17T08:30:12.487Z,15.88
2022-08-17T08:32:51.619Z,9.68
2022-08-17T08:35:27.187Z,10.48
2022-08-17T08:38:42.878Z,11.25
2022-08-17T08:41:47.401Z,10.95
2022-08-17T08:45:00.953Z,10.75
2022-08-17T08:47:35.504Z,10.57
2022-08-17T08:50:37.485Z,10.00
2022-08-17T08:53:30.374Z,10.85
2022-08-17T08:56:05.526Z,10.60
2022-08-17T08:58:57.454Z,12.48
2022-08-17T09:01:56.462Z,12.07
2022-08-17T09:05:12.794Z,10.52
2022-08-17T09:08:12.800Z,10.50
2022-08-17T09:10:52.814Z,10.27
2022-08-17T09:13:57.924Z,12.48
2022-08-17T09:16:39.498Z,14.93
2022-08-17T09:19:20.452Z,11.25
2022-08-17T09:21:58.823Z,12.32
2022-08-17T09:24:36.020Z,12.05
2022-08-17T09:27:09.513Z,10.15
2022-08-17T09:32:56.911Z,12.85
2022-08-17T09:35:37.532Z,10.27
2022-08-17T09:38:32.672Z,12.80
2022-08-17T09:41:20.816Z,14.85
2022-08-17T09:44:02.953Z,11.85
2022-08-17T09:46:45.926Z,9.27
2022-08-17T09:49:37.899Z,10.35
2022-08-17T09:52:51.602Z,9.65
2022-08-17T09:55:18.852Z,10.77
2022-08-17T09:58:29.101Z,10.35
2022-08-17T10:01:17.459Z,9.75
2022-08-17T10:04:13.176Z,12.27
2022-08-17T10:07:17.925Z,11.00
2022-08-17T10:10:26.115Z,9.60
2022-08-17T10:13:24.300Z,10.48
2022-08-17T10:16:03.688Z,8.45
2022-08-17T10:18:53.263Z,9.07
2022-08-17T10:21:43.073Z,9.05
2022-08-17T10:24:36.801Z,9.43
2022-08-17T10:27:19.736Z,11.45
2022-08-17T10:30:21.282Z,13.43
2022-08-17T10:32:56.756Z,21.58
2022-08-17T10:35:57.083Z,9.70
2022-08-17T10:38:37.954Z,9.18
2022-08-17T10:41:42.681Z,11.60
2022-08-17T10:44:39.648Z,8.75
2022-08-17T10:47:13.145Z,9.15
2022-08-17T10:49:54.092Z,9.00
2022-08-17T10:52:24.850Z,8.98
2022-08-17T10:54:54.904Z,8.63
2022-08-17T10:57:41.331Z,9.30
2022-08-17T11:00:47.765Z,8.68
2022-08-17T11:03:37.846Z,9.40
2022-08-17T11:06:17.322Z,8.57
2022-08-17T11:09:09.535Z,8.90
2022-08-17T11:12:01.977Z,8.73
2022-08-17T11:14:48.120Z,18.33
2022-08-17T11:17:39.203Z,8.60
2022-08-17T11:20:32.598Z,8.35
2022-08-17T11:23:30.190Z,9.13
2022-08-17T11:26:08.522Z,9.27
2022-08-17T11:28:52.490Z,9.50
2022-08-17T11:31:39.004Z,8.68
2022-08-17T11:34:26.885Z,9.30
2022-08-17T11:37:24.956Z,8.88
2022-08-17T11:40:16.399Z,8.57
2022-08-17T11:42:48.907Z,9.85
2022-08-17T11:45:34.313Z,9.90
2022-08-17T11:48:54.767Z,8.68
2022-08-17T11:51:44.394Z,8.75
2022-08-17T11:54:33.410Z,9.05
2022-08-17T11:57:27.148Z,8.80
2022-08-17T12:00:01.110Z,8.85
2022-08-17T12:03:11.839Z,9.43
2022-08-17T12:06:21.565Z,8.93
2022-08-17T12:09:21.338Z,9.13
2022-08-17T12:12:14.302Z,8.77
2022-08-17T12:15:12.916Z,9.15
2022-08-17T12:17:51.158Z,8.45
2022-08-17T12:20:44.379Z,8.73
2022-08-17T12:23:47.817Z,8.93
2022-08-17T12:26:14.994Z,9.18
2022-08-17T12:28:47.067Z,8.35
2022-08-17T12:31:43.918Z,8.43
2022-08-17T12:34:22.282Z,8.02
2022-08-17T12:37:00.721Z,8.30
2022-08-17T12:39:29.952Z,7.90
2022-08-17T12:42:02.894Z,8.15
2022-08-17T12:44:36.824Z,7.57
2022-08-17T12:47:22.778Z,7.10
2022-08-17T12:49:54.922Z,7.93
2022-08-17T12:52:28.684Z,7.22
2022-08-17T12:55:23.612Z,8.32
2022-08-17T12:58:01.730Z,7.53
2022-08-17T13:00:41.549Z,7.97
2022-08-17T13:03:23.923Z,8.07
2022-08-17T13:06:12.583Z,9.30
2022-08-17T13:08:47.887Z,9.20
2022-08-17T13:11:16.830Z,7.70
2022-08-17T13:14:09.081Z,8.00
2022-08-17T13:16:38.237Z,8.05
2022-08-17T13:19:29.726Z,7.32
2022-08-17T13:22:12.814Z,8.65
2022-08-17T13:24:54.846Z,9.35
2022-08-17T13:27:26.583Z,7.97
2022-08-17T13:29:58.363Z,7.30
2022-08-17T13:32:33.448Z,10.98
2022-08-17T13:35:41.038Z,11.82
2022-08-17T13:38:15.091Z,7.70
2022-08-17T13:41:23.619Z,7.25
2022-08-17T13:43:51.935Z,7.20
2022-08-17T13:46:31.370Z,6.97
2022-08-17T13:49:06.572Z,7.25
2022-08-17T13:51:44.160Z,8.05
2022-08-17T13:54:32.837Z,7.40
2022-08-17T13:57:12.445Z,7.45
2022-08-17T14:00:10.080Z,7.18
2022-08-17T14:02:37.139Z,7.70
2022-08-17T14:05:06.697Z,8.35
2022-08-17T14:07:38.481Z,9.75
2022-08-17T14:10:15.711Z,8.15
2022-08-17T14:12:47.170Z,8.05
2022-08-17T14:15:24.902Z,8.48
2022-08-17T14:18:11.979Z,8.85
2022-08-17T14:20:42.392Z,8.55
2022-08-17T14:23:11.604Z,8.38
2022-08-17T14:25:38.679Z,7.70
2022-08-17T14:28:15.272Z,8.05
2022-08-17T14:30:58.794Z,8.38
2022-08-17T14:33:38.121Z,8.50
2022-08-17T14:36:08.483Z,8.57
2022-08-17T14:38:36.200Z,8.38
2022-08-17T14:41:09.058Z,8.13
2022-08-17T14:43:40.230Z,8.55
2022-08-17T14:46:42.182Z,9.55
2022-08-17T14:49:13.148Z,8.57
2022-08-17T14:51:44.026Z,7.60
2022-08-17T14:54:32.693Z,9.48
2022-08-17T14:57:11.577Z,7.95
2022-08-17T14:59:59.726Z,8.65
2022-08-17T15:02:29.631Z,8.38
2022-08-17T15:05:05.564Z,8.63
2022-08-17T15:07:32.762Z,8.88
2022-08-17T15:10:06.623Z,11.20
2022-08-17T15:12:35.927Z,8.10
2022-08-17T15:15:05.499Z,9.20
2022-08-17T15:17:44.880Z,8.07
2022-08-17T15:20:21.885Z,7.18
2022-08-17T15:22:50.227Z,8.80
2022-08-17T15:25:19.578Z,8.52
2022-08-17T15:27:49.204Z,7.50
2022-08-17T15:30:18.535Z,8.18
2022-08-17T15:32:54.470Z,13.48
2022-08-17T15:35:32.946Z,11.43
2022-08-17T15:38:11.153Z,7.45
2022-08-17T15:40:43.550Z,7.50
2022-08-17T15:43:28.827Z,11.05
2022-08-17T15:46:04.802Z,7.90
2022-08-17T15:48:44.027Z,8.88
2022-08-17T15:51:21.078Z,7.15
2022-08-17T15:53:51.421Z,7.88
2022-08-17T15:56:19.332Z,7.75
2022-08-17T15:58:48.739Z,7.93
2022-08-17T16:01:51.790Z,7.28
2022-08-17T16:04:30.249Z,8.52
2022-08-17T16:07:00.288Z,8.18
2022-08-17T16:09:36.755Z,8.27
2022-08-17T16:12:18.886Z,24.98
2022-08-17T16:14:47.916Z,8.45
2022-08-17T16:17:40.261Z,7.30
2022-08-17T16:20:19.894Z,8.98
2022-08-17T16:22:50.015Z,9.07
2022-08-17T16:25:21.122Z,49.97
2022-08-17T16:27:55.597Z,38.10
2022-08-17T16:30:28.981Z,35.47
2022-08-17T16:32:58.220Z,13.18
2022-08-17T16:35:27.499Z,19.23
2022-08-17T16:37:57.673Z,30.92
2022-08-17T16:40:39.395Z,19.55
2022-08-17T16:43:15.447Z,19.98
2022-08-17T16:45:52.320Z,17.67
2022-08-17T16:48:20.142Z,8.60
2022-08-17T16:51:03.207Z,19.83
2022-08-17T16:53:37.776Z,15.98
2022-08-17T16:56:05.280Z,20.88
2022-08-17T16:58:34.337Z,14.82
2022-08-17T17:01:01.725Z,14.73
2022-08-17T17:03:44.477Z,8.73
2022-08-17T17:07:01.390Z,9.23
2022-08-17T17:09:39.053Z,13.35
2022-08-17T17:12:18.154Z,9.20
2022-08-17T17:14:48.736Z,9.70
2022-08-17T17:17:46.826Z,12.45
2022-08-17T17:20:16.882Z,8.13
2022-08-17T17:22:55.039Z,11.73
2022-08-17T17:25:34.296Z,10.50
2022-08-17T17:28:02.820Z,10.68
2022-08-17T17:31:29.029Z,10.82
2022-08-17T17:34:00.983Z,14.00
2022-08-17T17:36:51.806Z,15.45
2022-08-17T17:39:31.151Z,10.25
2022-08-17T17:42:03.157Z,13.40
2022-08-17T17:44:47.323Z,20.35
2022-08-17T17:47:38.907Z,11.43
2022-08-17T17:50:09.455Z,10.68
2022-08-17T17:53:19.761Z,11.75
2022-08-17T17:56:21.051Z,16.90
2022-08-17T17:59:18.125Z,21.85
2022-08-17T18:04:49.911Z,16.45
2022-08-17T18:07:43.171Z,17.38
2022-08-17T18:10:41.583Z,19.92
2022-08-17T18:13:17.847Z,20.98
2022-08-17T18:15:54.479Z,20.83
2022-08-17T18:18:44.366Z,19.33
2022-08-17T18:21:21.019Z,21.35
2022-08-17T18:23:59.489Z,17.25
2022-08-17T18:26:38.783Z,15.85
2022-08-17T18:29:30.388Z,15.55
2022-08-17T18:32:19.526Z,17.17
2022-08-17T18:35:00.569Z,17.90
2022-08-17T18:37:52.148Z,18.77
2022-08-17T18:40:35.716Z,18.67
2022-08-17T18:43:03.494Z,18.33
2022-08-17T18:46:17.360Z,16.15
2022-08-17T18:49:08.016Z,15.50
2022-08-17T18:51:43.353Z,15.93
2022-08-17T18:54:29.640Z,17.15
2022-08-17T18:57:00.041Z,20.10
2022-08-17T19:00:01.761Z,24.90
2022-08-17T19:02:46.131Z,18.60
2022-08-17T19:05:53.101Z,19.80
2022-08-17T19:08:29.202Z,22.15
2022-08-17T19:11:01.568Z,18.25
2022-08-17T19:13:36.699Z,21.45
2022-08-17T19:16:15.832Z,23.33
2022-08-17T19:18:52.808Z,21.65
2022-08-17T19:21:52.808Z,22.08
2022-08-17T19:24:26.667Z,20.38
2022-08-17T19:27:21.155Z,20.27
2022-08-17T19:30:07.747Z,18.95
2022-08-17T19:32:36.157Z,20.90
2022-08-17T19:35:17.491Z,26.27
2022-08-17T19:38:12.949Z,24.30
2022-08-17T19:41:08.341Z,22.33
2022-08-17T19:43:56.510Z,21.45
2022-08-17T19:46:48.653Z,21.33
2022-08-17T19:49:47.165Z,20.92
2022-08-17T19:52:37.764Z,21.77
2022-08-17T19:55:22.481Z,25.67
2022-08-17T19:58:04.947Z,21.92
2022-08-17T20:04:05.960Z,24.17
2022-08-17T20:06:42.507Z,24.73
2022-08-17T20:09:35.599Z,30.98
2022-08-17T20:12:19.981Z,28.30
2022-08-17T20:14:59.529Z,22.67
2022-08-17T20:17:34.915Z,22.17
2022-08-17T20:20:19.764Z,24.15
2022-08-17T20:22:57.842Z,23.58
2022-08-17T20:26:20.900Z,24.40
2022-08-17T20:29:17.183Z,21.83
2022-08-17T20:32:05.862Z,23.55
2022-08-17T20:34:38.161Z,23.30
2022-08-17T20:37:10.280Z,23.30
2022-08-17T20:39:46.308Z,24.70
2022-08-17T20:42:23.362Z,24.23
2022-08-17T20:44:59.620Z,23.40
2022-08-17T20:48:22.149Z,24.75
2022-08-17T20:51:01.256Z,26.33
2022-08-17T20:54:00.987Z,25.55
2022-08-17T20:56:49.325Z,21.15
2022-08-17T20:59:42.689Z,20.65
2022-08-17T21:02:20.446Z,22.15
2022-08-17T21:04:50.260Z,22.08
2022-08-17T21:07:43.412Z,22.70
2022-08-17T21:10:18.495Z,28.67
2022-08-17T21:13:15.648Z,23.40
2022-08-17T21:16:05.580Z,25.42
2022-08-17T21:18:52.999Z,23.92
2022-08-17T21:21:48.106Z,27.42
2022-08-17T21:24:34.843Z,24.20
2022-08-17T21:27:26.308Z,24.27
2022-08-17T21:29:59.544Z,23.38
2022-08-17T21:32:32.280Z,24.10
2022-08-17T21:35:07.008Z,21.70
2022-08-17T21:37:46.823Z,22.38
2022-08-17T21:40:37.082Z,22.98
2022-08-17T21:43:33.715Z,20.63
2022-08-17T21:46:22.247Z,23.23
2022-08-17T21:49:02.917Z,20.05
2022-08-17T21:51:50.292Z,20.58
2022-08-17T21:54:56.926Z,21.25
2022-08-17T21:57:53.237Z,23.27
2022-08-17T22:00:32.250Z,22.95
2022-08-17T22:03:03.445Z,23.45
2022-08-17T22:05:50.729Z,23.15
2022-08-17T22:08:25.188Z,22.40
2022-08-17T22:11:01.750Z,22.42
2022-08-17T22:13:31.055Z,21.23
2022-08-17T22:16:28.746Z,20.48
2022-08-17T22:18:59.393Z,22.55
2022-08-17T22:21:44.853Z,24.00
2022-08-17T22:25:08.664Z,25.50
2022-08-17T22:28:01.359Z,25.02
2022-08-17T22:30:34.965Z,25.17
2022-08-17T22:33:46.657Z,23.63
2022-08-17T22:36:42.501Z,22.98
2022-08-17T22:39:12.563Z,23.10
2022-08-17T22:42:06.605Z,22.45
2022-08-17T22:44:38.011Z,24.90
2022-08-17T22:47:41.297Z,21.63
2022-08-17T22:50:33.536Z,21.75
2022-08-17T22:53:23.079Z,24.63
2022-08-17T22:56:26.192Z,22.20
2022-08-17T22:59:15.291Z,21.63
2022-08-17T23:02:32.102Z,21.08
2022-08-17T23:05:13.433Z,22.50
2022-08-17T23:07:42.433Z,23.00
2022-08-17T23:10:12.473Z,22.55
2022-08-17T23:12:44.876Z,21.98
2022-08-17T23:15:16.196Z,20.40
2022-08-17T23:17:48.114Z,21.80
2022-08-17T23:20:18.474Z,21.13
2022-08-17T23:22:52.372Z,22.08
2022-08-17T23:25:34.918Z,21.45
2022-08-17T23:28:06.994Z,23.90
2022-08-17T23:30:42.832Z,22.27
2022-08-17T23:33:25.878Z,25.08
2022-08-17T23:36:00.837Z,26.67
2022-08-17T23:38:36.692Z,22.98
2022-08-17T23:41:17.863Z,22.48
2022-08-17T23:43:55.413Z,22.00
2022-08-17T23:46:24.769Z,23.70
2022-08-17T23:49:03.557Z,22.90
2022-08-17T23:51:42.775Z,21.98
2022-08-17T23:54:30.077Z,21.48
2022-08-17T23:56:57.183Z,21.90
2022-08-17T23:59:24.481Z,22.80
